createdAt,value
2023-04-05T00:01:53.725Z,44.41
2023-04-05T00:04:23.797Z,44.87
2023-04-05T00:06:53.979Z,44.68
2023-04-05T00:09:21.020Z,45.13
2023-04-05T00:11:48.361Z,45.08
2023-04-05T00:14:14.915Z,44.88
2023-04-05T00:16:41.900Z,45.18
2023-04-05T00:19:08.854Z,45.00
2023-04-05T00:21:35.194Z,45.47
2023-04-05T00:24:01.608Z,45.89
2023-04-05T00:26:28.050Z,45.68
2023-04-05T00:28:54.427Z,45.89
2023-04-05T00:31:20.874Z,45.92
2023-04-05T00:33:47.403Z,46.38
2023-04-05T00:36:20.508Z,46.30
2023-04-05T00:38:48.064Z,46.28
2023-04-05T00:41:14.641Z,46.38
2023-04-05T00:43:41.695Z,46.63
2023-04-05T00:46:08.785Z,47.06
2023-04-05T00:48:35.936Z,46.91
2023-04-05T00:51:02.677Z,47.00
2023-04-05T00:53:29.960Z,46.78
2023-04-05T00:55:57.293Z,47.26
2023-04-05T00:58:23.869Z,46.91
2023-04-05T01:01:06.536Z,47.17
2023-04-05T01:03:35.352Z,47.24
2023-04-05T01:06:21.492Z,47.27
2023-04-05T01:08:52.344Z,46.84
2023-04-05T01:11:19.028Z,47.28
2023-04-05T01:13:46.705Z,47.43
2023-04-05T01:16:13.341Z,47.54
2023-04-05T01:18:40.708Z,47.69
2023-04-05T01:21:34.452Z,47.76
2023-04-05T01:24:14.997Z,47.88
2023-04-05T01:27:04.215Z,47.98
2023-04-05T01:29:43.314Z,48.00
2023-04-05T01:32:24.613Z,47.71
2023-04-05T01:35:29.376Z,47.72
2023-04-05T01:38:01.598Z,47.51
2023-04-05T01:40:29.581Z,47.54
2023-04-05T01:42:55.934Z,47.45
2023-04-05T01:45:22.282Z,47.45
2023-04-05T01:47:48.796Z,47.43
2023-04-05T01:50:15.602Z,47.41
2023-04-05T01:52:42.016Z,47.36
2023-04-05T01:55:08.638Z,47.65
2023-04-05T01:57:35.117Z,47.22
2023-04-05T02:00:01.819Z,47.36
2023-04-05T02:02:28.201Z,46.99
2023-04-05T02:04:54.693Z,47.09
2023-04-05T02:07:21.122Z,47.21
2023-04-05T02:09:47.485Z,46.97
2023-04-05T02:12:13.996Z,46.87
2023-04-05T02:14:40.866Z,46.68
2023-04-05T02:17:07.489Z,46.94
2023-04-05T02:19:40.676Z,46.92
2023-04-05T02:22:08.360Z,46.67
2023-04-05T02:24:35.121Z,47.04
2023-04-05T02:27:01.581Z,46.61
2023-04-05T02:29:28.383Z,46.77
2023-04-05T02:31:55.038Z,46.82
2023-04-05T02:34:22.834Z,46.95
2023-04-05T02:36:51.172Z,46.60
2023-04-05T02:39:18.285Z,46.82
2023-04-05T02:41:44.809Z,47.17
2023-04-05T02:44:11.290Z,47.13
2023-04-05T02:46:37.729Z,46.99
2023-04-05T02:49:04.254Z,47.12
2023-04-05T02:51:30.587Z,47.04
2023-04-05T02:53:57.057Z,47.56
2023-04-05T02:56:23.403Z,47.68
2023-04-05T02:58:49.840Z,47.75
2023-04-05T03:01:17.776Z,48.04
2023-04-05T03:03:44.295Z,48.15
2023-04-05T03:06:10.815Z,48.15
2023-04-05T03:08:38.988Z,48.04
2023-04-05T03:11:06.558Z,47.79
2023-04-05T03:13:33.110Z,47.50
2023-04-05T03:15:59.469Z,47.48
2023-04-05T03:18:26.686Z,47.65
2023-04-05T03:20:59.837Z,47.39
2023-04-05T03:23:28.604Z,47.42
2023-04-05T03:25:58.757Z,47.64
2023-04-05T03:28:25.701Z,47.60
2023-04-05T03:30:52.121Z,47.44
2023-04-05T03:33:19.653Z,47.35
2023-04-05T03:35:46.638Z,47.16
2023-04-05T03:38:13.094Z,47.19
2023-04-05T03:40:40.162Z,47.39
2023-04-05T03:43:06.568Z,47.08
2023-04-05T03:45:33.855Z,47.26
2023-04-05T03:48:00.995Z,47.34
2023-04-05T03:50:27.534Z,47.34
2023-04-05T03:52:53.916Z,47.22
2023-04-05T03:55:20.261Z,47.38
2023-04-05T03:57:47.512Z,47.50
2023-04-05T04:00:14.680Z,47.24
2023-04-05T04:02:45.928Z,47.06
2023-04-05T04:05:13.936Z,47.47
2023-04-05T04:07:41.677Z,47.61
2023-04-05T04:10:10.364Z,47.63
2023-04-05T04:12:37.285Z,47.47
2023-04-05T04:15:04.515Z,47.67
2023-04-05T04:17:33.372Z,47.81
2023-04-05T04:20:00.391Z,47.97
2023-04-05T04:22:33.170Z,47.74
2023-04-05T04:25:04.664Z,47.78
2023-04-05T04:27:31.876Z,47.71
2023-04-05T04:30:04.705Z,47.84
2023-04-05T04:32:49.528Z,47.67
2023-04-05T04:35:18.372Z,47.66
2023-04-05T04:37:52.881Z,48.22
2023-04-05T04:40:19.272Z,47.86
2023-04-05T04:42:48.297Z,48.15
2023-04-05T04:45:17.194Z,47.88
2023-04-05T04:47:44.909Z,48.08
2023-04-05T04:50:11.877Z,47.97
2023-04-05T04:52:40.155Z,48.09
2023-04-05T04:55:08.524Z,48.46
2023-04-05T04:57:35.390Z,48.20
2023-04-05T05:00:02.182Z,48.33
2023-04-05T05:02:31.016Z,48.78
2023-04-05T05:04:57.727Z,48.81
2023-04-05T05:07:24.100Z,48.96
2023-04-05T05:09:52.407Z,49.07
2023-04-05T05:12:19.345Z,48.83
2023-04-05T05:14:45.716Z,48.51
2023-04-05T05:17:12.310Z,48.65
2023-04-05T05:19:38.824Z,48.61
2023-04-05T05:22:05.254Z,48.70
2023-04-05T05:24:31.731Z,48.35
2023-04-05T05:26:58.158Z,48.72
2023-04-05T05:29:24.505Z,48.68
2023-04-05T05:31:51.016Z,48.75
2023-04-05T05:34:36.200Z,48.62
2023-04-05T05:37:02.800Z,48.55
2023-04-05T05:39:29.150Z,48.41
2023-04-05T05:41:55.479Z,48.41
2023-04-05T05:44:21.856Z,48.48
2023-04-05T05:46:48.471Z,48.57
2023-04-05T05:49:14.988Z,48.41
2023-04-05T05:51:41.493Z,48.20
2023-04-05T05:54:07.876Z,48.20
2023-04-05T05:56:34.265Z,48.25
2023-04-05T05:59:01.563Z,48.33
2023-04-05T06:01:28.432Z,48.43
2023-04-05T06:03:55.596Z,48.19
2023-04-05T06:06:22.786Z,48.19
2023-04-05T06:08:51.280Z,48.08
2023-04-05T06:11:19.158Z,48.17
2023-04-05T06:13:45.632Z,48.09
2023-04-05T06:16:12.195Z,47.84
2023-04-05T06:18:38.711Z,47.84
2023-04-05T06:21:05.035Z,48.03
2023-04-05T06:23:31.538Z,47.81
2023-04-05T06:25:57.953Z,47.97
2023-04-05T06:28:24.273Z,47.81
2023-04-05T06:30:50.823Z,47.94
2023-04-05T06:33:17.189Z,47.79
2023-04-05T06:35:43.536Z,47.47
2023-04-05T06:38:09.909Z,47.38
2023-04-05T06:40:36.251Z,47.39
2023-04-05T06:43:02.711Z,47.17
2023-04-05T06:45:29.031Z,47.49
2023-04-05T06:47:55.693Z,47.49
2023-04-05T06:50:22.183Z,47.21
2023-04-05T06:52:48.514Z,46.57
2023-04-05T06:55:14.909Z,46.74
2023-04-05T06:57:41.550Z,46.60
2023-04-05T07:00:12.554Z,46.53
2023-04-05T07:02:41.728Z,46.45
2023-04-05T07:05:08.825Z,46.06
2023-04-05T07:07:45.410Z,46.26
2023-04-05T07:10:11.810Z,46.37
2023-04-05T07:12:39.763Z,45.97
2023-04-05T07:15:06.933Z,45.52
2023-04-05T07:17:33.276Z,45.69
2023-04-05T07:19:59.718Z,45.63
2023-04-05T07:22:26.145Z,45.51
2023-04-05T07:24:53.051Z,45.37
2023-04-05T07:27:19.483Z,45.21
2023-04-05T07:29:48.271Z,45.13
2023-04-05T07:32:14.968Z,44.64
2023-04-05T07:34:41.607Z,44.89
2023-04-05T07:37:08.553Z,45.30
2023-04-05T07:39:34.984Z,45.09
2023-04-05T07:42:01.613Z,44.97
2023-04-05T07:44:28.019Z,44.31
2023-04-05T07:46:54.418Z,44.68
2023-04-05T07:49:25.401Z,44.55
2023-04-05T07:51:54.823Z,43.85
2023-04-05T07:54:21.200Z,43.86
2023-04-05T07:56:49.380Z,43.46
2023-04-05T07:59:16.716Z,43.46
2023-04-05T08:01:43.337Z,43.35
2023-04-05T08:04:09.693Z,43.12
2023-04-05T08:06:36.612Z,43.29
2023-04-05T08:09:05.571Z,43.61
2023-04-05T08:11:32.334Z,43.08
2023-04-05T08:13:58.767Z,42.67
2023-04-05T08:16:25.479Z,42.87
2023-04-05T08:18:51.833Z,42.40
2023-04-05T08:21:18.156Z,42.68
2023-04-05T08:23:44.501Z,42.17
2023-04-05T08:26:10.940Z,42.21
2023-04-05T08:28:37.550Z,41.28
2023-04-05T08:31:03.943Z,41.65
2023-04-05T08:33:31.213Z,41.37
2023-04-05T08:35:57.927Z,41.05
2023-04-05T08:38:24.275Z,41.17
2023-04-05T08:40:50.715Z,40.41
2023-04-05T08:43:25.883Z,40.51
2023-04-05T08:45:53.340Z,39.63
2023-04-05T08:48:20.642Z,40.17
2023-04-05T08:50:53.871Z,40.48
2023-04-05T08:53:20.647Z,40.52
2023-04-05T08:55:50.984Z,40.14
2023-04-05T08:58:18.516Z,40.02
2023-04-05T09:00:45.170Z,39.88
2023-04-05T09:03:16.745Z,39.97
2023-04-05T09:05:46.433Z,39.92
2023-04-05T09:08:13.679Z,39.55
2023-04-05T09:10:40.934Z,39.34
2023-04-05T09:13:11.255Z,39.91
2023-04-05T09:15:38.629Z,39.20
2023-04-05T09:18:12.382Z,38.80
2023-04-05T09:20:45.845Z,38.35
2023-04-05T09:23:12.360Z,37.91
2023-04-05T09:25:40.315Z,37.74
2023-04-05T09:28:07.383Z,37.81
2023-04-05T09:30:35.632Z,37.82
2023-04-05T09:33:02.224Z,37.65
2023-04-05T09:35:33.387Z,37.52
2023-04-05T09:38:07.751Z,37.56
2023-04-05T09:40:48.409Z,37.33
2023-04-05T09:43:41.479Z,37.93
2023-04-05T09:46:28.467Z,37.84
2023-04-05T09:48:55.029Z,37.10
2023-04-05T09:51:21.661Z,37.39
2023-04-05T09:54:00.599Z,37.46
2023-04-05T09:56:27.865Z,37.59
2023-04-05T09:59:07.650Z,37.31
2023-04-05T10:01:34.202Z,36.38
2023-04-05T10:04:01.015Z,36.41
2023-04-05T10:06:40.292Z,37.17
2023-04-05T10:09:08.400Z,36.76
2023-04-05T10:11:36.993Z,37.00
2023-04-05T10:14:05.559Z,36.45
2023-04-05T10:16:54.912Z,36.61
2023-04-05T10:19:29.152Z,36.40
2023-04-05T10:22:01.719Z,36.14
2023-04-05T10:24:38.098Z,35.72
2023-04-05T10:27:07.698Z,35.53
2023-04-05T10:30:04.856Z,35.92
2023-04-05T10:33:00.424Z,35.66
2023-04-05T12:09:13.255Z,31.27
2023-04-05T12:11:41.089Z,31.00
2023-04-05T12:14:07.411Z,29.89
2023-04-05T12:16:33.955Z,30.37
2023-04-05T12:19:00.876Z,30.38
2023-04-05T12:21:27.923Z,30.23
2023-04-05T12:23:54.810Z,29.81
2023-04-05T12:26:22.211Z,30.25
2023-04-05T12:28:56.121Z,30.45
2023-04-05T12:31:37.216Z,30.78
2023-04-05T12:34:03.624Z,30.32
2023-04-05T12:36:32.083Z,29.79
2023-04-05T12:38:59.012Z,29.66
2023-04-05T12:41:29.904Z,30.26
2023-04-05T12:44:04.552Z,29.57
2023-04-05T12:46:40.959Z,30.27
2023-04-05T12:49:10.921Z,29.76
2023-04-05T12:51:41.514Z,29.53
2023-04-05T12:54:07.835Z,29.33
2023-04-05T12:56:34.231Z,30.04
2023-04-05T12:59:00.753Z,29.46
2023-04-05T13:01:27.229Z,29.60
2023-04-05T13:03:56.890Z,29.39
2023-04-05T13:06:33.900Z,29.10
2023-04-05T13:09:00.593Z,29.25
2023-04-05T13:11:28.102Z,28.41
2023-04-05T13:13:54.726Z,27.90
2023-04-05T13:16:21.682Z,28.04
2023-04-05T13:18:48.052Z,27.73
2023-04-05T13:21:14.477Z,27.60
2023-04-05T13:23:41.635Z,27.61
2023-04-05T13:26:08.271Z,27.21
2023-04-05T13:28:35.319Z,26.89
2023-04-05T13:31:03.251Z,27.29
2023-04-05T13:33:29.584Z,26.94
2023-04-05T13:35:55.994Z,27.43
2023-04-05T13:38:22.458Z,26.91
2023-04-05T13:40:48.783Z,27.20
2023-04-05T13:43:15.323Z,27.26
2023-04-05T13:45:41.890Z,26.84
2023-04-05T13:48:08.471Z,27.27
2023-04-05T13:50:35.004Z,27.21
2023-04-05T13:53:01.698Z,27.44
2023-04-05T13:55:28.041Z,28.08
2023-04-05T13:57:54.374Z,28.23
2023-04-05T14:00:21.138Z,28.55
2023-04-05T14:02:48.796Z,28.39
2023-04-05T14:05:17.042Z,28.37
2023-04-05T14:07:43.437Z,28.34
2023-04-05T14:10:11.563Z,28.51
2023-04-05T14:12:38.763Z,28.25
2023-04-05T14:15:05.793Z,28.43
2023-04-05T14:17:32.173Z,28.18
2023-04-05T14:19:58.558Z,28.24
2023-04-05T14:22:25.287Z,28.08
2023-04-05T14:24:51.598Z,28.52
2023-04-05T14:27:18.081Z,27.73
2023-04-05T14:29:45.613Z,28.10
2023-04-05T14:32:12.113Z,27.95
2023-04-05T14:34:38.549Z,28.25
2023-04-05T14:37:06.482Z,28.03
2023-04-05T14:39:32.894Z,27.53
2023-04-05T14:41:59.837Z,27.91
2023-04-05T14:44:27.760Z,28.07
2023-04-05T14:46:54.244Z,28.46
2023-04-05T14:49:21.437Z,28.40
2023-04-05T14:51:48.000Z,28.02
2023-04-05T14:54:14.442Z,28.28
2023-04-05T14:56:40.834Z,27.73
2023-04-05T14:59:07.310Z,27.77
2023-04-05T15:01:33.765Z,27.36
2023-04-05T15:04:01.027Z,27.40
2023-04-05T15:06:27.395Z,27.32
2023-04-05T15:08:53.737Z,28.08
2023-04-05T15:11:21.566Z,27.69
2023-04-05T15:13:47.932Z,27.97
2023-04-05T15:16:14.414Z,28.16
2023-04-05T15:18:40.937Z,27.99
2023-04-05T15:21:07.512Z,27.78
2023-04-05T15:23:34.205Z,27.86
2023-04-05T15:26:00.801Z,28.05
2023-04-05T15:28:27.171Z,27.79
2023-04-05T15:30:53.575Z,27.91
2023-04-05T15:33:20.037Z,28.15
2023-04-05T15:35:46.542Z,27.93
2023-04-05T15:38:13.037Z,27.64
2023-04-05T15:40:40.175Z,27.66
2023-04-05T15:43:06.628Z,27.86
2023-04-05T15:45:32.958Z,27.31
2023-04-05T15:47:59.712Z,27.09
2023-04-05T15:50:26.215Z,27.53
2023-04-05T15:52:52.606Z,27.45
2023-04-05T15:55:19.349Z,27.22
2023-04-05T15:57:45.948Z,27.71
2023-04-05T16:00:13.019Z,27.42
2023-04-05T16:02:39.686Z,27.55
2023-04-05T16:05:06.435Z,27.45
2023-04-05T16:07:32.907Z,27.36
2023-04-05T16:09:59.255Z,27.65
2023-04-05T16:12:25.885Z,28.02
2023-04-05T16:14:52.335Z,27.89
2023-04-05T16:17:18.730Z,28.39
2023-04-05T16:19:45.183Z,28.30
2023-04-05T16:22:11.596Z,28.71
2023-04-05T16:24:39.105Z,28.57
2023-04-05T16:27:06.135Z,28.22
2023-04-05T16:29:33.054Z,28.08
2023-04-05T16:31:59.561Z,27.55
2023-04-05T16:34:26.375Z,27.97
2023-04-05T16:36:52.827Z,27.86
2023-04-05T16:39:19.323Z,27.97
2023-04-05T16:41:45.927Z,27.76
2023-04-05T16:44:12.466Z,27.39
2023-04-05T16:46:39.968Z,27.58
2023-04-05T16:49:06.507Z,27.28
2023-04-05T16:51:34.294Z,27.43
2023-04-05T16:54:00.771Z,27.58
2023-04-05T16:56:27.324Z,27.17
2023-04-05T16:58:53.780Z,27.50
2023-04-05T17:01:20.410Z,26.20
2023-04-05T17:03:46.996Z,26.50
2023-04-05T17:06:16.509Z,26.70
2023-04-05T17:08:42.996Z,26.10
2023-04-05T17:11:09.387Z,25.85
2023-04-05T17:13:35.783Z,25.76
2023-04-05T17:16:02.262Z,26.08
2023-04-05T17:18:28.729Z,25.85
2023-04-05T17:20:55.241Z,25.91
2023-04-05T17:23:21.695Z,25.43
2023-04-05T17:25:48.054Z,25.38
2023-04-05T17:28:14.401Z,25.40
2023-04-05T17:30:41.108Z,25.90
2023-04-05T17:33:07.801Z,26.10
2023-04-05T17:35:34.305Z,26.29
2023-04-05T17:38:03.206Z,26.27
2023-04-05T17:40:31.044Z,26.45
2023-04-05T17:42:57.417Z,26.68
2023-04-05T17:45:23.790Z,26.50
2023-04-05T17:47:50.290Z,26.71
2023-04-05T17:50:16.719Z,26.58
2023-04-05T17:52:43.327Z,26.63
2023-04-05T17:55:10.307Z,27.12
2023-04-05T17:57:36.842Z,27.33
2023-04-05T18:00:04.034Z,27.13
2023-04-05T18:02:30.571Z,27.29
2023-04-05T18:04:57.162Z,27.63
2023-04-05T18:07:23.516Z,28.15
2023-04-05T18:09:49.961Z,27.90
2023-04-05T18:12:16.292Z,28.00
2023-04-05T18:14:42.654Z,28.28
2023-04-05T18:17:09.045Z,28.15
2023-04-05T18:19:35.759Z,28.52
2023-04-05T18:22:02.286Z,28.82
2023-04-05T18:24:29.336Z,29.31
2023-04-05T18:26:55.787Z,29.08
2023-04-05T18:29:27.957Z,28.95
2023-04-05T18:31:55.749Z,29.14
2023-04-05T18:34:22.244Z,29.29
2023-04-05T18:36:48.628Z,29.38
2023-04-05T18:39:15.343Z,29.72
2023-04-05T18:41:41.674Z,29.69
2023-04-05T18:44:09.067Z,29.85
2023-04-05T18:46:35.490Z,30.00
2023-04-05T18:49:01.856Z,30.18
2023-04-05T18:51:28.489Z,30.29
2023-04-05T18:53:54.849Z,30.33
2023-04-05T18:56:21.263Z,30.34
2023-04-05T18:58:47.808Z,30.48
2023-04-05T19:01:15.959Z,30.33
2023-04-05T19:03:42.844Z,30.69
2023-04-05T19:06:09.734Z,30.55
2023-04-05T19:08:36.107Z,30.76
2023-04-05T19:11:02.529Z,30.81
2023-04-05T19:13:28.867Z,30.69
2023-04-05T19:15:55.692Z,31.19
2023-04-05T19:18:25.712Z,31.26
2023-04-05T19:20:57.634Z,31.48
2023-04-05T19:23:26.228Z,31.44
2023-04-05T19:25:54.661Z,31.53
2023-04-05T19:28:21.261Z,31.93
2023-04-05T19:30:47.640Z,31.71
2023-04-05T19:33:14.253Z,32.16
2023-04-05T19:35:41.113Z,31.79
2023-04-05T19:38:07.736Z,32.09
2023-04-05T19:40:34.113Z,32.10
2023-04-05T19:43:02.002Z,32.19
2023-04-05T19:45:30.752Z,32.48
2023-04-05T19:47:59.698Z,32.48
2023-04-05T19:50:38.697Z,32.49
2023-04-05T19:53:07.411Z,32.35
2023-04-05T19:55:38.528Z,32.52
2023-04-05T19:58:09.533Z,32.85
2023-04-05T20:00:43.342Z,32.96
2023-04-05T20:03:32.042Z,32.78
2023-04-05T20:06:04.269Z,32.81
2023-04-05T20:08:33.540Z,32.89
2023-04-05T20:11:00.128Z,33.30
2023-04-05T20:13:26.581Z,33.03
2023-04-05T20:15:53.989Z,33.46
2023-04-05T20:18:26.826Z,33.70
2023-04-05T20:20:54.272Z,33.52
2023-04-05T20:23:22.514Z,33.67
2023-04-05T20:25:50.537Z,33.81
2023-04-05T20:28:32.268Z,33.74
2023-04-05T20:30:58.736Z,33.98
2023-04-05T20:33:52.416Z,34.01
2023-04-05T20:36:21.427Z,34.45
2023-04-05T20:38:48.854Z,34.53
2023-04-05T20:41:17.305Z,34.30
2023-04-05T20:43:43.998Z,34.54
2023-04-05T20:46:11.717Z,34.38
2023-04-05T20:48:39.007Z,34.67
2023-04-05T20:51:07.655Z,34.48
2023-04-05T20:53:34.439Z,34.67
2023-04-05T20:56:00.858Z,34.83
2023-04-05T20:58:27.803Z,34.85
2023-04-05T21:00:54.838Z,34.62
2023-04-05T21:03:21.939Z,34.94
2023-04-05T21:05:48.429Z,35.33
2023-04-05T21:08:15.889Z,35.03
2023-04-05T21:10:42.553Z,35.08
2023-04-05T21:13:08.872Z,35.08
2023-04-05T21:15:35.479Z,34.98
2023-04-05T21:18:02.850Z,34.78
2023-04-05T21:20:29.200Z,35.38
2023-04-05T21:22:58.908Z,35.51
2023-04-05T21:25:25.790Z,35.66
2023-04-05T21:27:52.132Z,35.37
2023-04-05T21:30:18.629Z,35.79
2023-04-05T21:32:45.163Z,35.40
2023-04-05T21:35:11.753Z,35.55
2023-04-05T21:37:38.128Z,35.96
2023-04-05T21:40:05.161Z,35.88
2023-04-05T21:42:31.970Z,35.62
2023-04-05T21:44:58.546Z,35.85
2023-04-05T21:47:25.325Z,35.73
2023-04-05T21:49:52.749Z,35.83
2023-04-05T21:52:19.344Z,35.75
2023-04-05T21:54:46.139Z,35.65
2023-04-05T21:57:12.503Z,36.11
2023-04-05T21:59:38.942Z,35.62
2023-04-05T22:02:06.805Z,35.74
2023-04-05T22:04:33.476Z,36.22
2023-04-05T22:06:59.850Z,35.73
2023-04-05T22:09:27.892Z,35.88
2023-04-05T22:11:54.581Z,36.24
2023-04-05T22:14:20.978Z,35.96
2023-04-05T22:16:47.972Z,35.89
2023-04-05T22:19:14.540Z,36.57
2023-04-05T22:21:41.292Z,36.35
2023-04-05T22:24:09.150Z,36.16
2023-04-05T22:26:35.660Z,36.56
2023-04-05T22:29:02.858Z,36.68
2023-04-05T22:31:29.260Z,36.31
2023-04-05T22:33:55.613Z,36.67
2023-04-05T22:36:22.191Z,36.64
2023-04-05T22:38:48.655Z,36.64
2023-04-05T22:41:14.976Z,36.71
2023-04-05T22:43:41.380Z,37.01
2023-04-05T22:46:07.761Z,36.75
2023-04-05T22:48:34.233Z,37.02
2023-04-05T22:51:00.781Z,36.86
2023-04-05T22:53:28.253Z,36.99
2023-04-05T22:55:54.682Z,37.37
2023-04-05T22:58:22.434Z,36.91
2023-04-05T23:00:48.833Z,37.39
2023-04-05T23:03:15.328Z,37.13
2023-04-05T23:05:41.703Z,37.42
2023-04-05T23:08:08.186Z,37.29
2023-04-05T23:10:34.515Z,37.29
2023-04-05T23:13:01.343Z,37.35
2023-04-05T23:15:27.734Z,37.39
2023-04-05T23:17:54.106Z,37.50
2023-04-05T23:20:20.534Z,37.76
2023-04-05T23:22:47.914Z,37.68
2023-04-05T23:25:14.376Z,38.10
2023-04-05T23:27:40.775Z,38.07
2023-04-05T23:30:08.013Z,38.36
2023-04-05T23:32:34.480Z,38.11
2023-04-05T23:35:00.968Z,38.62
2023-04-05T23:37:27.446Z,38.28
2023-04-05T23:39:53.806Z,38.17
2023-04-05T23:42:20.139Z,38.23
2023-04-05T23:44:46.499Z,38.27
2023-04-05T23:47:12.905Z,38.40
2023-04-05T23:49:39.331Z,38.74
2023-04-05T23:52:05.782Z,38.40
2023-04-05T23:54:32.113Z,38.56
2023-04-05T23:56:58.667Z,38.99
2023-04-05T23:59:25.523Z,38.51
